createdAt,value
2023-05-14T00:00:48.084Z,7.57
2023-05-14T00:03:15.049Z,7.54
2023-05-14T00:05:41.805Z,7.54
2023-05-14T00:08:08.582Z,7.51
2023-05-14T00:10:35.268Z,7.44
2023-05-14T00:13:02.353Z,7.43
2023-05-14T00:15:29.044Z,7.39
2023-05-14T00:17:55.890Z,7.42
2023-05-14T00:20:22.901Z,7.54
2023-05-14T00:22:49.880Z,7.51
2023-05-14T00:25:16.449Z,7.42
2023-05-14T00:27:43.127Z,7.37
2023-05-14T00:30:10.033Z,7.49
2023-05-14T00:32:36.822Z,7.46
2023-05-14T00:35:04.433Z,7.49
2023-05-14T00:37:31.586Z,7.44
2023-05-14T00:39:58.683Z,7.46
2023-05-14T00:42:26.737Z,7.50
2023-05-14T00:44:53.551Z,7.63
2023-05-14T00:47:20.388Z,7.69
2023-05-14T00:49:47.066Z,7.83
2023-05-14T00:52:14.504Z,7.87
2023-05-14T00:54:41.218Z,7.95
2023-05-14T00:57:08.068Z,7.98
2023-05-14T00:59:34.829Z,8.05
2023-05-14T01:02:01.789Z,8.10
2023-05-14T01:04:28.454Z,8.15
2023-05-14T01:07:06.086Z,8.19
2023-05-14T01:09:43.122Z,8.24
2023-05-14T01:12:20.995Z,8.27
2023-05-14T01:15:13.123Z,8.31
2023-05-14T01:17:59.982Z,8.30
2023-05-14T01:20:27.128Z,8.39
2023-05-14T01:22:53.953Z,8.50
2023-05-14T01:25:20.693Z,8.55
2023-05-14T01:28:02.321Z,8.61
2023-05-14T01:30:34.922Z,8.69
2023-05-14T01:33:06.320Z,8.80
2023-05-14T01:35:33.417Z,8.88
2023-05-14T01:38:02.217Z,8.91
2023-05-14T01:40:30.113Z,8.99
2023-05-14T01:42:57.047Z,8.99
2023-05-14T01:45:24.308Z,8.93
2023-05-14T01:47:51.372Z,8.96
2023-05-14T01:50:18.379Z,8.99
2023-05-14T01:52:45.047Z,8.96
2023-05-14T01:55:11.816Z,8.97
2023-05-14T01:57:38.408Z,8.96
2023-05-14T02:00:05.970Z,9.00
2023-05-14T02:02:40.757Z,9.03
2023-05-14T02:05:10.231Z,8.98
2023-05-14T02:07:36.864Z,8.82
2023-05-14T02:10:03.852Z,8.75
2023-05-14T02:12:30.515Z,8.66
2023-05-14T02:14:57.224Z,8.49
2023-05-14T02:17:26.222Z,8.44
2023-05-14T02:19:53.291Z,8.35
2023-05-14T02:22:19.924Z,8.22
2023-05-14T02:24:46.782Z,8.16
2023-05-14T02:27:13.468Z,8.10
2023-05-14T02:29:40.253Z,8.00
2023-05-14T02:32:07.292Z,7.81
2023-05-14T02:34:34.567Z,7.77
2023-05-14T02:37:01.158Z,7.66
2023-05-14T02:39:27.928Z,7.58
2023-05-14T02:41:54.725Z,7.55
2023-05-14T02:44:21.496Z,7.45
2023-05-14T02:46:48.216Z,7.43
2023-05-14T02:49:14.928Z,7.38
2023-05-14T02:51:41.536Z,7.29
2023-05-14T02:54:08.307Z,7.22
2023-05-14T02:56:34.933Z,7.26
2023-05-14T02:59:01.598Z,7.30
2023-05-14T03:01:28.988Z,7.27
2023-05-14T03:03:56.273Z,7.28
2023-05-14T03:06:23.030Z,7.28
2023-05-14T03:08:49.726Z,7.28
2023-05-14T03:11:16.304Z,7.29
2023-05-14T03:13:43.201Z,7.33
2023-05-14T03:16:10.059Z,7.34
2023-05-14T03:18:36.927Z,7.30
2023-05-14T03:21:04.004Z,7.21
2023-05-14T03:23:32.106Z,7.16
2023-05-14T03:25:58.847Z,7.12
2023-05-14T03:28:26.006Z,7.07
2023-05-14T03:30:52.840Z,7.09
2023-05-14T03:33:19.780Z,7.08
2023-05-14T03:35:46.423Z,7.00
2023-05-14T03:38:13.125Z,6.99
2023-05-14T03:40:39.703Z,6.94
2023-05-14T03:43:06.504Z,6.94
2023-05-14T03:45:33.562Z,7.03
2023-05-14T03:48:00.428Z,7.13
2023-05-14T03:50:27.445Z,7.17
2023-05-14T03:52:55.032Z,7.17
2023-05-14T03:55:21.817Z,7.33
2023-05-14T03:57:48.874Z,7.43
2023-05-14T04:00:16.045Z,7.46
2023-05-14T04:02:45.656Z,7.48
2023-05-14T04:05:12.504Z,7.54
2023-05-14T04:07:39.292Z,7.60
2023-05-14T04:10:06.841Z,7.70
2023-05-14T04:12:35.688Z,7.80
2023-05-14T04:15:02.994Z,7.82
2023-05-14T04:17:29.696Z,7.80
2023-05-14T04:19:56.730Z,7.84
2023-05-14T04:22:24.181Z,7.88
2023-05-14T04:24:51.746Z,7.91
2023-05-14T04:27:21.626Z,7.96
2023-05-14T04:29:49.032Z,7.99
2023-05-14T04:32:15.699Z,8.05
2023-05-14T04:34:42.487Z,8.11
2023-05-14T04:37:09.170Z,8.11
2023-05-14T04:39:36.109Z,8.17
2023-05-14T04:42:02.679Z,8.24
2023-05-14T04:44:29.370Z,8.31
2023-05-14T04:46:56.132Z,8.35
2023-05-14T04:49:22.821Z,8.40
2023-05-14T04:51:49.471Z,8.32
2023-05-14T04:54:16.190Z,8.43
2023-05-14T04:56:42.745Z,8.51
2023-05-14T04:59:09.454Z,8.58
2023-05-14T05:01:36.311Z,8.64
2023-05-14T05:04:03.097Z,8.60
2023-05-14T05:06:29.925Z,8.54
2023-05-14T05:08:56.574Z,8.56
2023-05-14T05:11:23.232Z,8.58
2023-05-14T05:13:50.723Z,8.68
2023-05-14T05:16:17.413Z,8.78
2023-05-14T05:18:45.578Z,8.86
2023-05-14T05:21:12.325Z,8.74
2023-05-14T05:23:39.087Z,8.72
2023-05-14T05:26:05.832Z,8.85
2023-05-14T05:28:32.523Z,8.97
2023-05-14T05:30:59.126Z,8.93
2023-05-14T05:33:26.027Z,9.02
2023-05-14T05:35:52.744Z,9.09
2023-05-14T05:38:19.467Z,9.16
2023-05-14T05:40:46.039Z,9.20
2023-05-14T05:43:13.941Z,9.04
2023-05-14T05:45:41.525Z,8.86
2023-05-14T05:48:08.218Z,8.96
2023-05-14T05:50:35.021Z,8.97
2023-05-14T05:53:01.844Z,9.02
2023-05-14T05:55:29.245Z,8.95
2023-05-14T05:57:56.286Z,8.98
2023-05-14T06:00:23.927Z,9.09
2023-05-14T06:02:52.271Z,9.12
2023-05-14T06:05:19.587Z,9.29
2023-05-14T06:07:46.318Z,9.35
2023-05-14T06:10:12.893Z,9.37
2023-05-14T06:12:40.478Z,9.43
2023-05-14T06:15:07.597Z,9.41
2023-05-14T06:17:34.338Z,9.39
2023-05-14T06:20:01.009Z,9.18
2023-05-14T06:22:27.822Z,9.22
2023-05-14T06:24:54.441Z,9.36
2023-05-14T06:27:21.093Z,9.45
2023-05-14T06:29:47.681Z,9.57
2023-05-14T06:32:15.819Z,9.79
2023-05-14T06:34:42.790Z,9.97
2023-05-14T06:37:10.463Z,10.11
2023-05-14T06:39:37.761Z,10.31
2023-05-14T06:42:04.747Z,10.39
2023-05-14T06:44:31.545Z,10.40
2023-05-14T06:46:58.286Z,10.21
2023-05-14T06:49:25.298Z,10.52
2023-05-14T06:51:52.377Z,10.71
2023-05-14T06:54:20.492Z,10.86
2023-05-14T06:56:47.324Z,11.04
2023-05-14T06:59:14.057Z,11.15
2023-05-14T07:01:41.062Z,11.10
2023-05-14T07:04:07.967Z,11.22
2023-05-14T07:06:34.721Z,11.38
2023-05-14T07:09:01.754Z,11.47
2023-05-14T07:11:28.570Z,11.46
2023-05-14T07:13:55.389Z,11.62
2023-05-14T07:16:22.075Z,11.71
2023-05-14T07:18:48.889Z,11.83
2023-05-14T07:21:15.741Z,11.86
2023-05-14T07:23:42.366Z,12.02
2023-05-14T07:26:09.472Z,12.19
2023-05-14T07:28:36.091Z,12.34
2023-05-14T07:31:05.082Z,12.44
2023-05-14T07:33:33.275Z,12.48
2023-05-14T07:35:59.969Z,12.50
2023-05-14T07:38:26.634Z,12.59
2023-05-14T07:40:53.340Z,12.44
2023-05-14T07:43:19.906Z,12.24
2023-05-14T07:45:46.707Z,12.12
2023-05-14T07:48:13.420Z,12.10
2023-05-14T07:50:40.225Z,12.13
2023-05-14T07:53:06.892Z,12.23
2023-05-14T07:55:33.582Z,12.40
2023-05-14T07:58:00.449Z,12.56
2023-05-14T08:00:27.303Z,12.80
2023-05-14T08:02:55.510Z,12.99
2023-05-14T08:05:22.432Z,13.23
2023-05-14T08:07:49.108Z,13.42
2023-05-14T08:10:15.850Z,13.66
2023-05-14T08:12:42.870Z,13.92
2023-05-14T08:15:09.980Z,14.12
2023-05-14T08:17:36.659Z,14.19
2023-05-14T08:20:03.634Z,14.15
2023-05-14T08:22:30.384Z,14.23
2023-05-14T08:24:57.099Z,14.35
2023-05-14T08:27:23.834Z,14.48
2023-05-14T08:29:51.429Z,14.48
2023-05-14T08:32:23.276Z,14.50
2023-05-14T08:34:50.737Z,14.57
2023-05-14T08:37:17.404Z,14.66
2023-05-14T08:39:44.103Z,14.60
2023-05-14T08:42:12.737Z,14.59
2023-05-14T08:44:47.748Z,14.64
2023-05-14T08:47:15.793Z,14.82
2023-05-14T08:49:44.945Z,14.75
2023-05-14T08:52:12.395Z,14.86
2023-05-14T08:54:40.223Z,15.31
2023-05-14T08:57:09.799Z,15.69
2023-05-14T08:59:36.746Z,15.91
2023-05-14T09:02:06.416Z,16.12
2023-05-14T09:04:33.976Z,16.20
2023-05-14T09:07:02.071Z,16.18
2023-05-14T09:09:28.934Z,16.03
2023-05-14T09:11:55.643Z,16.01
2023-05-14T09:14:23.275Z,15.68
2023-05-14T09:16:51.148Z,15.72
2023-05-14T09:19:21.345Z,15.38
2023-05-14T09:21:49.175Z,15.82
2023-05-14T09:24:20.938Z,15.74
2023-05-14T09:26:51.738Z,15.73
2023-05-14T09:29:18.615Z,15.68
2023-05-14T09:31:45.600Z,15.65
2023-05-14T09:34:12.360Z,15.54
2023-05-14T09:36:38.952Z,15.40
2023-05-14T09:39:06.052Z,15.30
2023-05-14T09:41:32.798Z,15.15
2023-05-14T09:44:02.440Z,15.32
2023-05-14T09:46:31.533Z,15.23
2023-05-14T09:48:58.588Z,15.73
2023-05-14T09:51:25.857Z,16.08
2023-05-14T09:53:53.220Z,16.52
2023-05-14T09:56:21.679Z,17.09
2023-05-14T09:58:48.656Z,17.09
2023-05-14T10:01:19.100Z,17.18
2023-05-14T10:03:45.916Z,17.33
2023-05-14T10:06:13.512Z,17.70
2023-05-14T10:08:42.465Z,17.53
2023-05-14T10:11:13.845Z,17.68
2023-05-14T10:13:42.524Z,18.03
2023-05-14T10:16:20.432Z,18.39
2023-05-14T10:18:52.129Z,18.63
2023-05-14T10:21:21.783Z,18.62
2023-05-14T10:23:49.057Z,18.52
2023-05-14T10:26:16.110Z,18.52
2023-05-14T10:28:43.079Z,18.49
2023-05-14T10:31:10.326Z,17.77
2023-05-14T10:33:47.809Z,17.68
2023-05-14T10:36:14.568Z,17.33
2023-05-14T10:38:41.196Z,17.63
2023-05-14T10:41:11.969Z,17.58
2023-05-14T10:43:40.541Z,17.64
2023-05-14T10:46:08.893Z,18.03
2023-05-14T10:48:37.290Z,18.18
2023-05-14T10:51:04.022Z,18.36
2023-05-14T10:53:39.249Z,18.26
2023-05-14T10:56:07.931Z,18.68
2023-05-14T10:58:52.547Z,18.67
2023-05-14T11:01:24.115Z,19.32
2023-05-14T11:03:53.235Z,19.29
2023-05-14T11:06:20.751Z,19.00
2023-05-14T11:08:47.871Z,18.39
2023-05-14T11:11:14.686Z,17.97
2023-05-14T11:13:41.686Z,17.52
2023-05-14T11:16:21.948Z,17.36
2023-05-14T11:18:54.755Z,17.59
2023-05-14T11:21:21.499Z,17.98
2023-05-14T11:23:48.221Z,18.47
2023-05-14T11:26:14.975Z,18.75
2023-05-14T11:28:41.694Z,19.22
2023-05-14T11:31:08.469Z,19.56
2023-05-14T11:33:36.067Z,19.51
2023-05-14T11:36:02.827Z,19.91
2023-05-14T11:38:29.437Z,19.41
2023-05-14T11:40:57.310Z,19.74
2023-05-14T11:43:24.119Z,19.82
2023-05-14T11:45:52.533Z,19.97
2023-05-14T11:48:23.746Z,19.93
2023-05-14T11:50:52.147Z,19.22
2023-05-14T11:53:25.769Z,19.02
2023-05-14T11:55:54.382Z,18.75
2023-05-14T11:58:21.799Z,18.38
2023-05-14T12:00:52.766Z,18.01
2023-05-14T12:03:25.356Z,17.76
2023-05-14T12:05:59.729Z,17.82
2023-05-14T12:08:30.422Z,17.72
2023-05-14T12:10:59.286Z,17.34
2023-05-14T12:13:32.721Z,17.12
2023-05-14T12:16:02.396Z,16.83
2023-05-14T12:18:32.669Z,16.82
2023-05-14T12:21:04.151Z,16.89
2023-05-14T12:23:32.058Z,17.16
2023-05-14T12:26:08.659Z,17.34
2023-05-14T12:28:38.314Z,17.51
2023-05-14T12:31:05.834Z,17.90
2023-05-14T12:33:32.611Z,18.25
2023-05-14T12:36:14.093Z,18.45
2023-05-14T12:38:47.895Z,18.82
2023-05-14T12:41:14.481Z,18.88
2023-05-14T12:43:43.362Z,18.82
2023-05-14T12:46:10.131Z,18.68
2023-05-14T12:48:36.816Z,18.70
2023-05-14T12:51:03.659Z,18.73
2023-05-14T12:53:30.438Z,18.55
2023-05-14T12:55:57.044Z,18.32
2023-05-14T12:58:23.850Z,18.13
2023-05-14T13:00:50.563Z,18.55
2023-05-14T13:03:17.364Z,19.21
2023-05-14T13:05:44.036Z,19.38
2023-05-14T13:08:10.722Z,19.19
2023-05-14T13:10:37.361Z,19.20
2023-05-14T13:13:04.020Z,19.32
2023-05-14T13:15:32.469Z,19.37
2023-05-14T13:17:59.433Z,19.86
2023-05-14T13:20:27.501Z,20.41
2023-05-14T13:22:54.239Z,20.85
2023-05-14T13:25:20.930Z,21.24
2023-05-14T13:27:50.689Z,21.29
2023-05-14T13:30:18.105Z,20.84
2023-05-14T13:32:44.986Z,20.86
2023-05-14T13:35:11.930Z,20.97
2023-05-14T13:37:38.694Z,20.82
2023-05-14T13:40:08.358Z,20.81
2023-05-14T13:42:35.978Z,20.59
2023-05-14T13:45:03.517Z,20.71
2023-05-14T13:47:30.239Z,20.27
2023-05-14T13:49:56.893Z,19.73
2023-05-14T13:52:23.548Z,19.35
2023-05-14T13:54:50.372Z,18.55
2023-05-14T13:57:17.055Z,17.80
2023-05-14T13:59:43.717Z,16.91
2023-05-14T14:02:10.397Z,16.61
2023-05-14T14:04:37.051Z,16.38
2023-05-14T14:07:04.295Z,16.32
2023-05-14T14:09:35.091Z,16.35
2023-05-14T14:12:05.151Z,16.30
2023-05-14T14:14:32.028Z,16.44
2023-05-14T14:16:58.620Z,16.62
2023-05-14T14:19:25.511Z,16.78
2023-05-14T14:21:52.137Z,16.85
2023-05-14T14:24:18.857Z,16.88
2023-05-14T14:26:45.554Z,17.21
2023-05-14T14:29:12.169Z,17.36
2023-05-14T14:31:38.808Z,17.60
2023-05-14T14:34:05.618Z,17.64
2023-05-14T14:36:32.249Z,17.80
2023-05-14T14:38:59.024Z,17.84
2023-05-14T14:41:26.701Z,17.78
2023-05-14T14:43:53.617Z,17.54
2023-05-14T14:46:20.358Z,17.73
2023-05-14T14:48:47.116Z,17.92
2023-05-14T14:51:13.772Z,18.10
2023-05-14T14:53:40.651Z,18.28
2023-05-14T14:56:07.408Z,18.46
2023-05-14T14:58:34.157Z,18.69
2023-05-14T15:01:01.379Z,18.98
2023-05-14T15:03:28.780Z,19.12
2023-05-14T15:05:55.705Z,19.35
2023-05-14T15:08:30.095Z,19.49
2023-05-14T15:10:57.124Z,19.69
2023-05-14T15:13:24.507Z,19.91
2023-05-14T15:15:52.122Z,19.93
2023-05-14T15:18:18.698Z,20.12
2023-05-14T15:20:45.488Z,20.31
2023-05-14T15:23:12.142Z,20.32
2023-05-14T15:25:38.909Z,20.18
2023-05-14T15:28:07.052Z,19.98
2023-05-14T15:30:33.841Z,20.04
2023-05-14T15:33:00.650Z,20.10
2023-05-14T15:35:27.383Z,20.01
2023-05-14T15:37:57.092Z,19.51
2023-05-14T15:40:23.835Z,19.24
2023-05-14T15:42:50.689Z,19.16
2023-05-14T15:45:17.557Z,18.95
2023-05-14T15:47:45.063Z,18.69
2023-05-14T15:50:11.990Z,18.72
2023-05-14T15:52:40.214Z,18.80
2023-05-14T15:55:07.418Z,18.99
2023-05-14T15:57:34.423Z,19.01
2023-05-14T16:00:01.318Z,19.53
2023-05-14T16:02:30.544Z,19.85
2023-05-14T16:04:57.398Z,20.14
2023-05-14T16:07:25.215Z,20.72
2023-05-14T16:09:51.932Z,21.36
2023-05-14T16:12:18.783Z,22.24
2023-05-14T16:14:45.508Z,24.01
2023-05-14T16:17:12.279Z,23.80
2023-05-14T16:19:39.673Z,24.27
2023-05-14T16:22:06.588Z,25.44
2023-05-14T16:24:33.293Z,24.54
2023-05-14T16:27:00.792Z,22.51
2023-05-14T16:29:27.872Z,20.52
2023-05-14T16:31:54.630Z,19.83
2023-05-14T16:34:21.337Z,22.06
2023-05-14T16:36:48.058Z,22.18
2023-05-14T16:39:15.030Z,22.31
2023-05-14T16:41:41.649Z,22.73
2023-05-14T16:46:34.953Z,25.49
2023-05-14T16:49:02.531Z,27.84
2023-05-14T16:51:29.201Z,29.74
2023-05-14T16:53:55.895Z,30.04
2023-05-14T16:56:22.698Z,30.28
2023-05-14T16:58:49.538Z,30.00
2023-05-14T17:01:16.440Z,28.69
2023-05-14T17:03:44.592Z,27.64
2023-05-14T17:06:11.406Z,26.31
2023-05-14T17:08:38.152Z,25.13
2023-05-14T17:11:05.955Z,23.85
2023-05-14T17:13:33.348Z,23.53
2023-05-14T17:16:00.868Z,25.20
2023-05-14T17:18:27.820Z,26.37
2023-05-14T17:20:54.507Z,26.28
2023-05-14T17:23:21.206Z,25.52
2023-05-14T17:25:48.255Z,25.46
2023-05-14T17:28:14.973Z,26.63
2023-05-14T17:30:41.755Z,26.89
2023-05-14T17:33:08.659Z,25.76
2023-05-14T17:35:36.464Z,24.71
2023-05-14T17:38:03.576Z,23.22
2023-05-14T17:40:30.323Z,22.34
2023-05-14T17:42:57.172Z,21.68
2023-05-14T17:45:24.210Z,20.88
2023-05-14T17:47:51.549Z,20.51
2023-05-14T17:50:18.995Z,20.39
2023-05-14T17:52:46.126Z,20.07
2023-05-14T17:55:12.882Z,19.78
2023-05-14T17:57:39.628Z,19.48
2023-05-14T18:00:07.495Z,19.08
2023-05-14T18:02:37.574Z,18.72
2023-05-14T18:05:04.737Z,18.47
2023-05-14T18:07:31.452Z,18.22
2023-05-14T18:09:58.357Z,17.67
2023-05-14T18:12:25.712Z,17.10
2023-05-14T18:14:52.375Z,16.96
2023-05-14T18:17:19.082Z,16.39
2023-05-14T18:19:45.842Z,16.12
2023-05-14T18:22:12.764Z,15.86
2023-05-14T18:24:39.404Z,15.62
2023-05-14T18:27:06.288Z,15.20
2023-05-14T18:29:32.937Z,14.85
2023-05-14T18:31:59.588Z,14.73
2023-05-14T18:34:26.268Z,14.58
2023-05-14T18:36:52.976Z,14.38
2023-05-14T18:39:19.783Z,14.11
2023-05-14T18:41:46.404Z,13.92
2023-05-14T18:44:13.163Z,13.70
2023-05-14T18:46:40.068Z,13.58
2023-05-14T18:49:06.925Z,13.43
2023-05-14T18:51:33.542Z,13.27
2023-05-14T18:54:00.207Z,13.16
2023-05-14T18:56:26.886Z,13.08
2023-05-14T18:58:54.188Z,13.01
2023-05-14T19:01:21.453Z,12.76
2023-05-14T19:03:48.275Z,12.71
2023-05-14T19:06:15.001Z,12.66
2023-05-14T19:08:41.803Z,12.50
2023-05-14T19:11:08.347Z,12.29
2023-05-14T19:13:35.047Z,12.16
2023-05-14T19:16:01.776Z,12.09
2023-05-14T19:18:28.498Z,12.06
2023-05-14T19:20:56.820Z,12.02
2023-05-14T19:23:23.506Z,11.88
2023-05-14T19:25:50.363Z,11.79
2023-05-14T19:28:19.790Z,11.69
2023-05-14T19:30:46.544Z,11.62
2023-05-14T19:33:13.394Z,11.51
2023-05-14T19:35:40.052Z,11.47
2023-05-14T19:38:06.718Z,11.45
2023-05-14T19:40:33.550Z,11.37
2023-05-14T19:43:00.213Z,11.37
2023-05-14T19:45:27.059Z,11.23
2023-05-14T19:47:54.102Z,11.29
2023-05-14T19:50:20.946Z,11.24
2023-05-14T19:52:47.836Z,11.11
2023-05-14T19:55:14.536Z,11.10
2023-05-14T19:57:41.180Z,11.04
2023-05-14T20:00:09.049Z,10.91
2023-05-14T20:02:40.581Z,10.91
2023-05-14T20:05:09.184Z,10.87
2023-05-14T20:07:35.849Z,10.88
2023-05-14T20:10:02.727Z,10.87
2023-05-14T20:12:29.416Z,10.88
2023-05-14T20:14:56.087Z,10.81
2023-05-14T20:17:22.804Z,10.75
2023-05-14T20:19:49.600Z,10.66
2023-05-14T20:22:16.244Z,10.65
2023-05-14T20:24:42.972Z,10.56
2023-05-14T20:27:09.685Z,10.60
2023-05-14T20:29:36.350Z,10.61
2023-05-14T20:32:03.058Z,10.57
2023-05-14T20:34:29.795Z,10.62
2023-05-14T20:36:57.548Z,10.65
2023-05-14T20:39:24.403Z,10.70
2023-05-14T20:41:51.124Z,10.74
2023-05-14T20:44:19.138Z,10.76
2023-05-14T20:46:47.337Z,10.78
2023-05-14T20:49:14.076Z,10.84
2023-05-14T20:51:40.763Z,10.84
2023-05-14T20:54:07.350Z,10.88
2023-05-14T20:56:34.239Z,10.91
2023-05-14T20:59:00.852Z,10.90
2023-05-14T21:01:27.600Z,10.93
2023-05-14T21:03:54.392Z,10.93
2023-05-14T21:06:21.270Z,10.88
2023-05-14T21:08:47.982Z,10.94
2023-05-14T21:11:14.711Z,10.99
2023-05-14T21:13:43.868Z,11.07
2023-05-14T21:16:12.810Z,11.06
2023-05-14T21:18:39.528Z,10.99
2023-05-14T21:21:06.306Z,11.00
2023-05-14T21:23:33.085Z,11.01
2023-05-14T21:25:59.837Z,10.93
2023-05-14T21:28:26.574Z,10.82
2023-05-14T21:30:53.292Z,10.75
2023-05-14T21:33:19.848Z,10.62
2023-05-14T21:35:46.530Z,10.57
2023-05-14T21:38:13.173Z,10.56
2023-05-14T21:40:39.887Z,10.57
2023-05-14T21:43:06.537Z,10.58
2023-05-14T21:45:33.268Z,10.54
2023-05-14T21:47:59.992Z,10.64
2023-05-14T21:50:26.988Z,10.60
2023-05-14T21:52:53.684Z,10.63
2023-05-14T21:55:20.413Z,10.72
2023-05-14T21:57:47.151Z,10.80
2023-05-14T22:00:18.543Z,10.83
2023-05-14T22:02:45.325Z,10.84
2023-05-14T22:05:11.950Z,10.84
2023-05-14T22:07:38.649Z,10.85
2023-05-14T22:10:05.549Z,10.80
2023-05-14T22:12:32.205Z,10.72
2023-05-14T22:14:58.891Z,10.56
2023-05-14T22:17:28.113Z,10.43
2023-05-14T22:19:55.037Z,10.36
2023-05-14T22:22:21.756Z,10.18
2023-05-14T22:24:48.418Z,10.18
2023-05-14T22:27:15.084Z,10.12
2023-05-14T22:29:41.693Z,10.09
2023-05-14T22:32:09.588Z,10.05
2023-05-14T22:34:39.075Z,10.06
2023-05-14T22:37:05.921Z,10.06
2023-05-14T22:39:32.498Z,10.03
2023-05-14T22:41:59.269Z,9.95
2023-05-14T22:44:27.703Z,9.91
2023-05-14T22:46:55.878Z,9.93
2023-05-14T22:49:22.515Z,9.95
2023-05-14T22:51:52.537Z,9.91
2023-05-14T22:54:19.220Z,9.86
2023-05-14T22:56:45.955Z,9.80
2023-05-14T22:59:12.824Z,9.89
2023-05-14T23:01:39.670Z,9.96
2023-05-14T23:04:06.497Z,10.02
2023-05-14T23:06:33.188Z,10.01
2023-05-14T23:08:59.888Z,9.97
2023-05-14T23:11:26.726Z,10.00
2023-05-14T23:13:53.429Z,10.02
2023-05-14T23:16:20.593Z,10.02
2023-05-14T23:18:47.434Z,10.07
2023-05-14T23:21:15.048Z,10.11
2023-05-14T23:23:41.713Z,10.06
2023-05-14T23:26:08.291Z,10.10
2023-05-14T23:28:34.942Z,10.09
2023-05-14T23:31:01.511Z,10.12
2023-05-14T23:33:28.184Z,10.09
2023-05-14T23:35:54.937Z,10.02
2023-05-14T23:38:21.753Z,9.89
2023-05-14T23:40:48.385Z,9.79
2023-05-14T23:43:15.088Z,9.79
2023-05-14T23:45:41.706Z,9.82
2023-05-14T23:48:08.551Z,9.77
2023-05-14T23:50:35.296Z,9.75
2023-05-14T23:53:02.011Z,9.67
2023-05-14T23:55:28.669Z,9.61
2023-05-14T23:57:55.389Z,9.58
